createdAt,value
2022-10-17T00:01:22.373Z,96370.92
2022-10-17T00:04:10.729Z,96378.91
2022-10-17T00:09:45.820Z,96380.05
2022-10-17T00:15:45.502Z,96376.16
2022-10-17T00:21:25.355Z,96381.88
2022-10-17T00:27:02.937Z,96376.17
2022-10-17T00:32:39.289Z,96385.49
2022-10-17T00:38:15.534Z,96389.27
2022-10-17T00:44:00.874Z,96390.72
2022-10-17T00:49:43.781Z,96384.25
2022-10-17T00:55:25.979Z,96381.64
2022-10-17T01:01:03.514Z,96377.30
2022-10-17T01:06:45.121Z,96377.78
2022-10-17T01:15:26.483Z,96374.36
2022-10-17T01:21:24.855Z,96373.44
2022-10-17T01:27:34.533Z,96377.54
2022-10-17T01:36:56.234Z,96380.27
2022-10-17T01:42:43.202Z,96371.85
2022-10-17T01:48:21.916Z,96375.49
2022-10-17T01:54:01.326Z,96363.22
2022-10-17T01:59:41.097Z,96363.90
2022-10-17T02:05:12.062Z,96373.91
2022-10-17T02:08:00.813Z,96368.86
2022-10-17T02:13:42.120Z,96372.14
2022-10-17T02:19:38.576Z,96377.27
2022-10-17T02:25:19.843Z,96364.80
2022-10-17T02:28:13.225Z,96363.17
2022-10-17T02:36:39.389Z,96355.44
2022-10-17T02:42:24.079Z,96359.92
2022-10-17T02:48:01.518Z,96365.37
2022-10-17T02:53:45.221Z,96368.10
2022-10-17T02:59:19.687Z,96362.14
2022-10-17T03:04:58.645Z,96355.04
2022-10-17T03:07:52.351Z,96364.06
2022-10-17T03:13:28.868Z,96381.88
2022-10-17T03:16:17.033Z,96379.14
2022-10-17T03:21:44.007Z,96385.14
2022-10-17T03:27:18.577Z,96386.72
2022-10-17T03:30:08.634Z,96389.84
2022-10-17T03:32:56.993Z,96398.50
2022-10-17T03:38:25.392Z,96403.37
2022-10-17T03:44:04.558Z,96409.94
2022-10-17T03:49:44.935Z,96409.26
2022-10-17T03:58:14.922Z,96421.57
2022-10-17T04:01:08.083Z,96423.01
2022-10-17T04:03:58.453Z,96425.98
2022-10-17T04:06:50.139Z,96418.91
2022-10-17T04:12:30.954Z,96432.78
2022-10-17T04:18:13.531Z,96440.64
2022-10-17T04:23:55.536Z,96453.36
2022-10-17T04:29:32.055Z,96454.79
2022-10-17T04:32:20.360Z,96449.80
2022-10-17T04:37:59.087Z,96455.72
2022-10-17T04:43:35.970Z,96454.86
2022-10-17T04:46:24.993Z,96459.49
2022-10-17T04:52:02.496Z,96458.56
2022-10-17T04:54:52.856Z,96453.64
2022-10-17T05:00:28.242Z,96471.87
2022-10-17T05:06:15.132Z,96478.67
2022-10-17T05:11:55.454Z,96465.00
2022-10-17T05:17:26.330Z,96469.59
2022-10-17T05:20:15.907Z,96473.80
2022-10-17T05:25:58.281Z,96470.57
2022-10-17T05:28:47.964Z,96474.48
2022-10-17T05:31:36.382Z,96472.23
2022-10-17T05:37:17.231Z,96477.08
2022-10-17T05:40:06.796Z,96468.09
2022-10-17T05:42:56.665Z,96478.38
2022-10-17T05:48:31.161Z,96480.50
2022-10-17T05:51:20.726Z,96491.48
2022-10-17T05:57:04.656Z,96496.75
2022-10-17T06:02:59.275Z,96498.47
2022-10-17T06:05:54.027Z,96502.19
2022-10-17T06:08:43.700Z,96504.01
2022-10-17T06:14:18.655Z,96508.81
2022-10-17T06:17:08.402Z,96513.87
2022-10-17T06:22:48.752Z,96521.22
2022-10-17T06:28:23.872Z,96534.37
2022-10-17T06:31:14.511Z,96531.98
2022-10-17T06:42:29.729Z,96553.02
2022-10-17T06:48:05.091Z,96547.41
2022-10-17T06:50:54.957Z,96554.99
2022-10-17T06:56:33.392Z,96568.77
2022-10-17T06:59:21.845Z,96566.52
2022-10-17T07:02:11.791Z,96578.45
2022-10-17T07:10:38.698Z,96589.89
2022-10-17T07:16:12.169Z,96598.80
2022-10-17T07:21:48.935Z,96606.78
2022-10-17T07:27:32.072Z,96610.40
2022-10-17T07:33:21.814Z,96611.42
2022-10-17T07:38:51.872Z,96612.92
2022-10-17T07:44:31.958Z,96620.59
2022-10-17T07:47:20.982Z,96625.16
2022-10-17T07:50:10.545Z,96625.73
2022-10-17T07:53:01.477Z,96626.03
2022-10-17T07:55:51.576Z,96634.21
2022-10-17T07:58:40.526Z,96632.61
2022-10-17T08:04:23.881Z,96637.66
2022-10-17T08:12:43.765Z,96644.61
2022-10-17T08:15:32.312Z,96648.45
2022-10-17T08:18:20.753Z,96654.15
2022-10-17T08:23:57.425Z,96645.19
2022-10-17T08:26:48.290Z,96654.11
2022-10-17T08:32:25.051Z,96644.48
2022-10-17T08:38:11.032Z,96656.38
2022-10-17T08:44:08.560Z,96657.97
2022-10-17T08:46:59.004Z,96659.27
2022-10-17T08:49:51.624Z,96657.32
2022-10-17T08:55:29.247Z,96659.81
2022-10-17T09:01:13.079Z,96658.45
2022-10-17T09:04:23.807Z,96656.64
2022-10-17T09:07:14.800Z,96661.05
2022-10-17T09:10:06.390Z,96663.08
2022-10-17T09:12:58.207Z,96671.83
2022-10-17T09:18:37.571Z,96672.42
2022-10-17T09:21:29.093Z,96670.70
2022-10-17T09:27:00.104Z,96663.11
2022-10-17T09:29:50.547Z,96664.79
2022-10-17T09:35:27.285Z,96670.27
2022-10-17T09:38:20.774Z,96668.83
2022-10-17T09:43:58.716Z,96668.77
2022-10-17T09:49:51.076Z,96677.75
2022-10-17T09:55:37.034Z,96677.89
2022-10-17T09:58:52.650Z,96678.12
2022-10-17T10:01:42.141Z,96682.00
2022-10-17T10:07:14.075Z,96682.92
2022-10-17T10:10:03.408Z,96675.72
2022-10-17T10:15:55.076Z,96683.56
2022-10-17T10:21:30.236Z,96688.34
2022-10-17T10:24:20.274Z,96684.94
2022-10-17T10:32:41.916Z,96679.53
2022-10-17T10:35:34.713Z,96680.00
2022-10-17T10:41:07.429Z,96680.81
2022-10-17T10:47:10.556Z,96690.86
2022-10-17T10:50:17.200Z,96682.25
2022-10-17T10:53:16.315Z,96686.55
2022-10-17T10:56:06.920Z,96682.20
2022-10-17T10:59:01.369Z,96672.83
2022-10-17T11:04:35.403Z,96665.39
2022-10-17T11:07:27.392Z,96670.70
2022-10-17T11:13:03.768Z,96664.22
2022-10-17T11:18:33.072Z,96659.11
2022-10-17T11:21:28.768Z,96662.44
2022-10-17T11:29:54.047Z,96655.81
2022-10-17T11:35:35.345Z,96658.88
2022-10-17T11:41:17.158Z,96650.94
2022-10-17T11:46:52.426Z,96646.71
2022-10-17T11:53:03.664Z,96653.91
2022-10-17T11:58:34.818Z,96645.16
2022-10-17T12:07:23.496Z,96641.89
2022-10-17T12:13:41.843Z,96642.84
2022-10-17T12:19:50.041Z,96635.79
2022-10-17T12:25:26.123Z,96627.92
2022-10-17T12:28:17.729Z,96633.81
2022-10-17T12:33:54.341Z,96640.56
2022-10-17T12:36:43.713Z,96632.27
2022-10-17T12:42:53.729Z,96626.33
2022-10-17T12:49:05.818Z,96617.84
2022-10-17T12:55:14.082Z,96622.02
2022-10-17T12:58:04.689Z,96623.97
2022-10-17T13:03:36.345Z,96624.02
2022-10-17T13:06:26.987Z,96624.42
2022-10-17T13:12:11.662Z,96620.28
2022-10-17T13:17:43.903Z,96617.52
2022-10-17T13:23:25.553Z,96610.23
2022-10-17T13:29:06.630Z,96614.61
2022-10-17T13:34:38.638Z,96599.98
2022-10-17T13:40:40.453Z,96600.36
2022-10-17T13:46:19.248Z,96597.97
2022-10-17T13:48:54.037Z,96596.39
2022-10-17T13:54:47.063Z,96595.23
2022-10-17T14:03:09.872Z,96600.93
2022-10-17T14:06:03.709Z,96600.95
2022-10-17T14:11:42.095Z,96598.56
2022-10-17T14:17:18.581Z,96598.98
2022-10-17T14:25:44.340Z,96591.47
2022-10-17T14:31:37.794Z,96596.80
2022-10-17T14:37:33.727Z,96603.52
2022-10-17T14:43:07.217Z,96598.59
2022-10-17T14:46:00.817Z,96599.93
2022-10-17T14:52:03.837Z,96598.92
2022-10-17T14:57:40.257Z,96599.50
2022-10-17T15:03:18.897Z,96597.91
2022-10-17T15:09:05.261Z,96596.67
2022-10-17T15:11:54.430Z,96607.89
2022-10-17T15:14:43.247Z,96599.56
2022-10-17T15:17:35.192Z,96600.30
2022-10-17T15:23:07.181Z,96603.42
2022-10-17T15:29:01.661Z,96601.59
2022-10-17T15:31:51.658Z,96606.06
2022-10-17T15:34:40.492Z,96603.08
2022-10-17T15:37:31.261Z,96599.82
2022-10-17T15:43:17.375Z,96602.33
2022-10-17T15:48:49.158Z,96602.61
2022-10-17T15:54:36.703Z,96602.46
2022-10-17T15:57:27.578Z,96607.09
2022-10-17T16:03:19.668Z,96617.80
2022-10-17T16:08:56.845Z,96619.20
2022-10-17T16:14:28.253Z,96622.56
2022-10-17T16:20:04.534Z,96627.37
2022-10-17T16:25:31.474Z,96626.90
2022-10-17T16:31:20.302Z,96635.30
2022-10-17T16:36:56.740Z,96639.61
2022-10-17T16:42:32.928Z,96638.36
2022-10-17T16:45:30.337Z,96641.12
2022-10-17T16:51:07.847Z,96645.03
2022-10-17T16:53:58.446Z,96648.39
2022-10-17T16:59:34.776Z,96652.25
2022-10-17T17:05:12.334Z,96653.14
2022-10-17T17:10:51.550Z,96666.69
2022-10-17T17:16:30.371Z,96675.82
2022-10-17T17:22:07.388Z,96689.50
2022-10-17T17:27:49.579Z,96683.09
2022-10-17T17:33:28.403Z,96692.91
2022-10-17T17:40:02.804Z,96714.02
2022-10-17T17:48:19.429Z,96723.63
2022-10-17T17:53:53.360Z,96731.98
2022-10-17T17:59:31.126Z,96730.94
2022-10-17T18:05:08.985Z,96740.92
2022-10-17T18:10:44.583Z,96730.38
2022-10-17T18:13:33.234Z,96727.86
2022-10-17T18:19:11.762Z,96729.05
2022-10-17T18:24:42.059Z,96735.80
2022-10-17T18:30:16.328Z,96735.48
2022-10-17T18:33:06.777Z,96745.09
2022-10-17T18:38:39.631Z,96748.88
2022-10-17T18:44:09.104Z,96756.10
2022-10-17T18:47:55.552Z,96755.81
2022-10-17T18:52:45.364Z,96755.12
2022-10-17T18:58:18.694Z,96755.71
2022-10-17T19:03:59.166Z,96760.06
2022-10-17T19:09:36.541Z,96749.93
2022-10-17T19:12:25.939Z,96754.06
2022-10-17T19:18:19.579Z,96755.55
2022-10-17T19:24:00.231Z,96753.52
2022-10-17T19:29:44.172Z,96755.14
2022-10-17T19:35:24.499Z,96755.64
2022-10-17T19:40:54.821Z,96758.39
2022-10-17T19:46:31.157Z,96754.97
2022-10-17T19:52:14.890Z,96754.45
2022-10-17T19:55:04.093Z,96756.94
2022-10-17T20:00:49.230Z,96757.30
2022-10-17T20:03:37.451Z,96759.81
2022-10-17T20:06:26.286Z,96762.45
2022-10-17T20:23:08.704Z,96766.82
2022-10-17T20:28:47.679Z,96781.10
2022-10-17T20:34:20.458Z,96778.16
2022-10-17T20:40:33.213Z,96790.50
2022-10-17T20:45:51.549Z,96792.99
2022-10-17T20:51:20.902Z,96790.84
2022-10-17T20:57:01.064Z,96798.38
2022-10-17T20:59:48.386Z,96801.45
2022-10-17T21:05:24.738Z,96793.25
2022-10-17T21:11:11.316Z,96785.27
2022-10-17T21:16:50.079Z,96778.88
2022-10-17T21:22:20.803Z,96782.30
2022-10-17T21:27:59.728Z,96788.44
2022-10-17T21:33:40.585Z,96789.82
2022-10-17T21:36:29.263Z,96792.55
2022-10-17T21:42:06.946Z,96788.23
2022-10-17T21:44:57.497Z,96785.24
2022-10-17T21:48:11.112Z,96789.45
2022-10-17T21:50:36.800Z,96786.16
2022-10-17T21:56:14.845Z,96788.27
2022-10-17T22:01:49.129Z,96797.53
2022-10-17T22:04:37.154Z,96801.28
2022-10-17T22:07:29.078Z,96793.98
2022-10-17T22:10:20.672Z,96799.09
2022-10-17T22:13:10.222Z,96803.20
2022-10-17T22:18:49.084Z,96803.31
2022-10-17T22:24:40.494Z,96795.14
2022-10-17T22:30:37.101Z,96800.20
2022-10-17T22:36:15.912Z,96786.17
2022-10-17T22:41:45.849Z,96790.55
2022-10-17T22:44:34.087Z,96781.06
2022-10-17T22:47:22.334Z,96786.50
2022-10-17T22:50:12.375Z,96786.48
2022-10-17T22:53:02.073Z,96791.02
2022-10-17T22:58:52.785Z,96791.37
2022-10-17T23:01:41.300Z,96793.75
2022-10-17T23:04:30.594Z,96791.56
2022-10-17T23:10:12.921Z,96792.14
2022-10-17T23:15:52.275Z,96791.92
2022-10-17T23:21:28.477Z,96791.86
2022-10-17T23:24:16.729Z,96787.04
2022-10-17T23:29:58.358Z,96784.32
2022-10-17T23:32:46.422Z,96786.58
2022-10-17T23:35:35.216Z,96789.59
2022-10-17T23:38:23.523Z,96795.53
2022-10-17T23:41:11.708Z,96794.64
2022-10-17T23:46:42.639Z,96789.93
2022-10-17T23:52:31.674Z,96793.16
2022-10-17T23:58:03.637Z,96784.73
